»·PEaware :: N698SP L88-KSBP

N698SP :: L88-KSBP

FLIGHT INFORMATION

Flight Status: Arrived
Operator: Privately registered:
United States
More flights under this callsign
Pilot: Dominik G. (31997)
Aircraft: CESSNA 172 SKYHAWK
(C172)
More flights by this aircraft type
Origin: L88 New Cuyama
United States
Destination: KSBP San Luis Co Regl
United States
More flights between these airports :: More routes between these airports
Route: L88 POZOE KSBP
File this flight plan on PilotEdge
Remarks:
Altitude:
(Current/Filed)
4,500ft
Speed:
(Current/Filed)
104kts
Departed: 25-Nov-20 02:44 PM
Arrived: 25-Nov-20 03:26 PM
Distance/Time
Traveled:
50nm/0:42
Distance/Time
To Go:
Arrived

Flight Plot

Page will automatically refresh every two minutes.

Flight plan parsing failed; only flown route is shown


Map Options




Map Legend


Flown Route
Filed Route
Departure Airport
Arrival Airport
Navaid (VOR, NDB)
Fix

Horizontal Profiles

Position Reports

Time Latitude Longitude Heading Altitude Ground
Speed
25-Nov-20 14:31 34.942856 -119.690285 204 2161ft 0kts
25-Nov-20 14:40 34.942856 -119.690285 204 2161ft 0kts
25-Nov-20 14:41 34.942792 -119.690363 249 2161ft 3kts
25-Nov-20 14:43 34.942563 -119.691188 155 2158ft 0kts
25-Nov-20 14:44 34.937359 -119.679008 117 2447ft 79kts
25-Nov-20 14:45 34.925633 -119.663727 247 3305ft 60kts
25-Nov-20 14:46 34.933666 -119.683475 295 4114ft 67kts
25-Nov-20 14:47 34.944440 -119.703864 296 4659ft 81kts
25-Nov-20 14:48 34.956197 -119.730310 298 4807ft 94kts
25-Nov-20 14:49 34.970454 -119.760937 296 4519ft 99kts
25-Nov-20 14:50 34.981499 -119.788256 296 4499ft 79kts
25-Nov-20 14:51 34.991120 -119.812090 296 4491ft 73kts
25-Nov-20 14:52 35.000429 -119.835081 296 4497ft 83kts
25-Nov-20 14:53 35.011898 -119.863148 296 4507ft 96kts
25-Nov-20 14:54 35.024036 -119.892669 296 4505ft 98kts
25-Nov-20 14:55 35.036411 -119.922613 296 4501ft 98kts
25-Nov-20 14:56 35.048912 -119.952745 296 4496ft 98kts
25-Nov-20 14:57 35.061204 -119.982430 296 4490ft 97kts
25-Nov-20 14:58 35.073378 -120.011910 296 4483ft 96kts
25-Nov-20 14:59 35.085343 -120.041068 296 4475ft 95kts
25-Nov-20 14:59 35.095524 -120.066200 296 4466ft 94kts
25-Nov-20 15:01 35.109311 -120.100386 296 4465ft 93kts
25-Nov-20 15:01 35.118750 -120.124029 296 4468ft 92kts
25-Nov-20 15:03 35.131746 -120.156893 296 4473ft 91kts
25-Nov-20 15:03 35.140998 -120.180323 296 4475ft 91kts
25-Nov-20 15:04 35.151951 -120.208486 296 4477ft 91kts
25-Nov-20 15:05 35.153429 -120.212327 296 4478ft 91kts
25-Nov-20 15:06 35.153429 -120.212327 296 4478ft 91kts
25-Nov-20 15:07 35.153429 -120.212327 296 4478ft 91kts
25-Nov-20 15:08 35.153429 -120.212327 296 4478ft 91kts
25-Nov-20 15:09 35.156100 -120.219229 296 4478ft 91kts
25-Nov-20 15:10 35.167307 -120.247727 296 4478ft 90kts
25-Nov-20 15:11 35.176038 -120.276632 285 4477ft 92kts
25-Nov-20 15:12 35.181546 -120.310421 284 4184ft 103kts
25-Nov-20 15:13 35.187578 -120.345192 284 3881ft 104kts
25-Nov-20 15:14 35.192916 -120.376669 284 4481ft 89kts
25-Nov-20 15:15 35.191306 -120.396549 262 4343ft 100kts
25-Nov-20 15:16 35.189621 -120.431552 282 3816ft 99kts
25-Nov-20 15:17 35.195079 -120.464766 283 3289ft 87kts
25-Nov-20 15:18 35.201361 -120.490411 290 3012ft 71kts
25-Nov-20 15:19 35.207017 -120.513771 259 2999ft 78kts
25-Nov-20 15:20 35.197747 -120.542076 259 2688ft 91kts
25-Nov-20 15:21 35.197724 -120.572187 305 2116ft 87kts
25-Nov-20 15:22 35.210273 -120.593227 302 1406ft 75kts
25-Nov-20 15:23 35.220404 -120.611385 301 796ft 53kts
25-Nov-20 15:24 35.228837 -120.626259 304 404ft 53kts
25-Nov-20 15:25 35.236032 -120.638758 309 216ft 26kts
25-Nov-20 15:26 35.237540 -120.639950 10 216ft 0kts
25-Nov-20 15:27 35.238538 -120.639876 4 216ft 0kts
25-Nov-20 15:28 35.238537 -120.639876 4 216ft 0kts
25-Nov-20 15:29 35.238537 -120.639876 4 216ft 0kts
25-Nov-20 15:30 35.238537 -120.639876 4 216ft 0kts
25-Nov-20 15:31 35.238537 -120.639876 4 216ft 0kts
25-Nov-20 15:32 35.238537 -120.639876 4 216ft 0kts
25-Nov-20 15:33 35.238537 -120.639876 4 216ft 0kts
25-Nov-20 15:34 35.238537 -120.639876 4 216ft 0kts
25-Nov-20 15:35 35.238537 -120.639876 4 216ft 0kts
25-Nov-20 15:36 35.238537 -120.639876 4 216ft 0kts
25-Nov-20 15:37 35.238537 -120.639876 4 216ft 0kts

Navigation Log

Ident Type
Flight plan parsing failed, navigation log unavailable